sensor_id;sensor_type;location;lat;lon;timestamp;temperature;humidity
48860;DHT22;34679;51.436;-2.518;2023-05-27T00:02:25;11.40;99.90
48860;DHT22;34679;51.436;-2.518;2023-05-27T00:04:51;11.30;99.90
48860;DHT22;34679;51.436;-2.518;2023-05-27T00:07:17;11.30;99.90
48860;DHT22;34679;51.436;-2.518;2023-05-27T00:09:43;11.30;99.90
48860;DHT22;34679;51.436;-2.518;2023-05-27T00:12:08;11.30;99.90
48860;DHT22;34679;51.436;-2.518;2023-05-27T00:14:34;11.30;99.90
48860;DHT22;34679;51.436;-2.518;2023-05-27T00:17:00;11.10;99.90
48860;DHT22;34679;51.436;-2.518;2023-05-27T00:19:30;11.10;99.90
48860;DHT22;34679;51.436;-2.518;2023-05-27T00:21:56;11.00;99.90
48860;DHT22;34679;51.436;-2.518;2023-05-27T00:24:22;11.00;99.90
48860;DHT22;34679;51.436;-2.518;2023-05-27T00:26:48;10.90;99.90
48860;DHT22;34679;51.436;-2.518;2023-05-27T00:29:16;10.80;99.90
48860;DHT22;34679;51.436;-2.518;2023-05-27T00:31:42;10.70;99.90
48860;DHT22;34679;51.436;-2.518;2023-05-27T00:34:08;10.70;99.90
48860;DHT22;34679;51.436;-2.518;2023-05-27T00:36:34;10.60;99.90
48860;DHT22;34679;51.436;-2.518;2023-05-27T00:39:01;10.60;99.90
48860;DHT22;34679;51.436;-2.518;2023-05-27T00:41:26;10.60;99.90
48860;DHT22;34679;51.436;-2.518;2023-05-27T00:43:53;10.60;99.90
48860;DHT22;34679;51.436;-2.518;2023-05-27T00:46:19;10.60;99.90
48860;DHT22;34679;51.436;-2.518;2023-05-27T00:48:46;10.50;99.90
48860;DHT22;34679;51.436;-2.518;2023-05-27T00:51:13;10.50;99.90
48860;DHT22;34679;51.436;-2.518;2023-05-27T00:53:42;10.50;99.90
48860;DHT22;34679;51.436;-2.518;2023-05-27T00:56:09;10.50;99.90
48860;DHT22;34679;51.436;-2.518;2023-05-27T00:58:36;10.50;99.90
48860;DHT22;34679;51.436;-2.518;2023-05-27T01:01:05;10.50;99.90
48860;DHT22;34679;51.436;-2.518;2023-05-27T01:03:31;10.40;99.90
48860;DHT22;34679;51.436;-2.518;2023-05-27T01:06:20;10.40;99.90
48860;DHT22;34679;51.436;-2.518;2023-05-27T01:14:23;10.30;99.90
48860;DHT22;34679;51.436;-2.518;2023-05-27T01:16:51;10.30;99.90
48860;DHT22;34679;51.436;-2.518;2023-05-27T01:19:30;10.20;99.90
48860;DHT22;34679;51.436;-2.518;2023-05-27T01:21:59;10.20;99.90
48860;DHT22;34679;51.436;-2.518;2023-05-27T01:24:26;10.20;99.90
48860;DHT22;34679;51.436;-2.518;2023-05-27T01:26:52;10.20;99.90
48860;DHT22;34679;51.436;-2.518;2023-05-27T01:29:19;10.10;99.90
48860;DHT22;34679;51.436;-2.518;2023-05-27T01:34:38;10.00;99.90
48860;DHT22;34679;51.436;-2.518;2023-05-27T01:37:08;10.00;99.90
48860;DHT22;34679;51.436;-2.518;2023-05-27T01:39:35;10.00;99.90
48860;DHT22;34679;51.436;-2.518;2023-05-27T01:42:01;9.90;99.90
48860;DHT22;34679;51.436;-2.518;2023-05-27T01:44:29;9.80;99.90
48860;DHT22;34679;51.436;-2.518;2023-05-27T01:47:02;9.80;99.90
48860;DHT22;34679;51.436;-2.518;2023-05-27T01:49:28;9.80;99.90
48860;DHT22;34679;51.436;-2.518;2023-05-27T01:51:54;9.80;99.90
48860;DHT22;34679;51.436;-2.518;2023-05-27T01:54:20;9.80;99.90
48860;DHT22;34679;51.436;-2.518;2023-05-27T01:56:46;9.80;99.90
48860;DHT22;34679;51.436;-2.518;2023-05-27T01:59:12;9.70;99.90
48860;DHT22;34679;51.436;-2.518;2023-05-27T02:01:37;9.70;99.90
48860;DHT22;34679;51.436;-2.518;2023-05-27T02:04:03;9.60;99.90
48860;DHT22;34679;51.436;-2.518;2023-05-27T02:06:29;9.60;99.90
48860;DHT22;34679;51.436;-2.518;2023-05-27T02:08:55;9.50;99.90
48860;DHT22;34679;51.436;-2.518;2023-05-27T02:11:21;9.50;99.90
48860;DHT22;34679;51.436;-2.518;2023-05-27T02:13:47;9.50;99.90
48860;DHT22;34679;51.436;-2.518;2023-05-27T02:16:12;9.60;99.90
48860;DHT22;34679;51.436;-2.518;2023-05-27T02:18:40;9.60;99.90
48860;DHT22;34679;51.436;-2.518;2023-05-27T02:21:06;9.50;99.90
48860;DHT22;34679;51.436;-2.518;2023-05-27T02:23:32;9.50;99.90
48860;DHT22;34679;51.436;-2.518;2023-05-27T02:25:58;9.50;99.90
48860;DHT22;34679;51.436;-2.518;2023-05-27T02:28:24;9.40;99.90
48860;DHT22;34679;51.436;-2.518;2023-05-27T02:30:50;9.30;99.90
48860;DHT22;34679;51.436;-2.518;2023-05-27T02:33:16;9.30;99.90
48860;DHT22;34679;51.436;-2.518;2023-05-27T02:35:41;9.20;99.90
48860;DHT22;34679;51.436;-2.518;2023-05-27T02:38:07;9.10;99.90
48860;DHT22;34679;51.436;-2.518;2023-05-27T02:40:32;9.10;99.90
48860;DHT22;34679;51.436;-2.518;2023-05-27T02:42:58;9.10;99.90
48860;DHT22;34679;51.436;-2.518;2023-05-27T02:45:24;9.10;99.90
48860;DHT22;34679;51.436;-2.518;2023-05-27T02:47:50;9.10;99.90
48860;DHT22;34679;51.436;-2.518;2023-05-27T02:50:16;9.00;99.90
48860;DHT22;34679;51.436;-2.518;2023-05-27T02:52:42;9.00;99.90
48860;DHT22;34679;51.436;-2.518;2023-05-27T02:55:08;8.90;99.90
48860;DHT22;34679;51.436;-2.518;2023-05-27T02:57:33;8.90;99.90
48860;DHT22;34679;51.436;-2.518;2023-05-27T02:59:59;8.80;99.90
48860;DHT22;34679;51.436;-2.518;2023-05-27T03:02:25;8.80;99.90
48860;DHT22;34679;51.436;-2.518;2023-05-27T03:04:50;8.80;99.90
48860;DHT22;34679;51.436;-2.518;2023-05-27T03:07:16;8.70;99.90
48860;DHT22;34679;51.436;-2.518;2023-05-27T03:09:42;8.70;99.90
48860;DHT22;34679;51.436;-2.518;2023-05-27T03:12:07;8.60;99.90
48860;DHT22;34679;51.436;-2.518;2023-05-27T03:14:33;8.60;99.90
48860;DHT22;34679;51.436;-2.518;2023-05-27T03:16:59;8.60;99.90
48860;DHT22;34679;51.436;-2.518;2023-05-27T03:19:25;8.60;99.90
48860;DHT22;34679;51.436;-2.518;2023-05-27T03:21:51;8.50;99.90
48860;DHT22;34679;51.436;-2.518;2023-05-27T03:24:17;8.50;99.90
48860;DHT22;34679;51.436;-2.518;2023-05-27T03:26:42;8.50;99.90
48860;DHT22;34679;51.436;-2.518;2023-05-27T03:29:08;8.40;99.90
48860;DHT22;34679;51.436;-2.518;2023-05-27T03:31:34;8.40;99.90
48860;DHT22;34679;51.436;-2.518;2023-05-27T03:34:00;8.30;99.90
48860;DHT22;34679;51.436;-2.518;2023-05-27T03:36:25;8.30;99.90
48860;DHT22;34679;51.436;-2.518;2023-05-27T03:38:52;8.20;99.90
48860;DHT22;34679;51.436;-2.518;2023-05-27T03:41:17;8.20;99.90
48860;DHT22;34679;51.436;-2.518;2023-05-27T03:43:43;8.20;99.90
48860;DHT22;34679;51.436;-2.518;2023-05-27T03:46:09;8.10;99.90
48860;DHT22;34679;51.436;-2.518;2023-05-27T03:48:35;8.10;99.90
48860;DHT22;34679;51.436;-2.518;2023-05-27T03:51:00;8.00;99.90
48860;DHT22;34679;51.436;-2.518;2023-05-27T03:53:26;8.00;99.90
48860;DHT22;34679;51.436;-2.518;2023-05-27T03:55:52;8.00;99.90
48860;DHT22;34679;51.436;-2.518;2023-05-27T03:58:18;8.00;99.90
48860;DHT22;34679;51.436;-2.518;2023-05-27T04:00:44;7.90;99.90
48860;DHT22;34679;51.436;-2.518;2023-05-27T04:03:09;7.90;99.90
48860;DHT22;34679;51.436;-2.518;2023-05-27T04:05:35;7.80;99.90
48860;DHT22;34679;51.436;-2.518;2023-05-27T04:08:02;7.80;99.90
48860;DHT22;34679;51.436;-2.518;2023-05-27T04:10:28;7.80;99.90
48860;DHT22;34679;51.436;-2.518;2023-05-27T04:12:54;7.80;99.90
48860;DHT22;34679;51.436;-2.518;2023-05-27T04:15:20;7.70;99.90
48860;DHT22;34679;51.436;-2.518;2023-05-27T04:17:46;7.70;99.90
48860;DHT22;34679;51.436;-2.518;2023-05-27T04:20:11;7.80;99.90
48860;DHT22;34679;51.436;-2.518;2023-05-27T04:22:41;7.70;99.90
48860;DHT22;34679;51.436;-2.518;2023-05-27T04:25:08;7.80;99.90
48860;DHT22;34679;51.436;-2.518;2023-05-27T04:27:33;7.90;99.90
48860;DHT22;34679;51.436;-2.518;2023-05-27T04:29:59;7.90;99.90
48860;DHT22;34679;51.436;-2.518;2023-05-27T04:32:26;7.90;99.90
48860;DHT22;34679;51.436;-2.518;2023-05-27T04:34:53;8.00;99.90
48860;DHT22;34679;51.436;-2.518;2023-05-27T04:37:19;8.00;99.90
48860;DHT22;34679;51.436;-2.518;2023-05-27T04:39:45;8.10;99.90
48860;DHT22;34679;51.436;-2.518;2023-05-27T04:42:12;8.40;99.90
48860;DHT22;34679;51.436;-2.518;2023-05-27T04:44:38;8.90;99.90
48860;DHT22;34679;51.436;-2.518;2023-05-27T04:47:06;9.40;99.90
48860;DHT22;34679;51.436;-2.518;2023-05-27T04:49:32;9.80;99.90
48860;DHT22;34679;51.436;-2.518;2023-05-27T04:51:57;10.20;99.90
48860;DHT22;34679;51.436;-2.518;2023-05-27T04:54:25;10.50;99.90
48860;DHT22;34679;51.436;-2.518;2023-05-27T04:56:51;10.80;99.90
48860;DHT22;34679;51.436;-2.518;2023-05-27T04:59:17;11.10;99.90
48860;DHT22;34679;51.436;-2.518;2023-05-27T05:01:45;11.70;99.90
48860;DHT22;34679;51.436;-2.518;2023-05-27T05:04:47;12.30;99.90
48860;DHT22;34679;51.436;-2.518;2023-05-27T05:07:13;13.00;99.90
48860;DHT22;34679;51.436;-2.518;2023-05-27T05:09:39;13.40;99.90
48860;DHT22;34679;51.436;-2.518;2023-05-27T05:12:05;14.00;99.90
48860;DHT22;34679;51.436;-2.518;2023-05-27T05:14:31;14.00;99.90
48860;DHT22;34679;51.436;-2.518;2023-05-27T05:16:57;14.40;99.90
48860;DHT22;34679;51.436;-2.518;2023-05-27T05:19:23;14.80;99.90
48860;DHT22;34679;51.436;-2.518;2023-05-27T05:21:48;14.90;99.90
48860;DHT22;34679;51.436;-2.518;2023-05-27T05:24:14;15.50;99.60
48860;DHT22;34679;51.436;-2.518;2023-05-27T05:26:40;15.60;99.10
48860;DHT22;34679;51.436;-2.518;2023-05-27T05:29:05;16.00;98.80
48860;DHT22;34679;51.436;-2.518;2023-05-27T05:31:31;16.30;98.00
48860;DHT22;34679;51.436;-2.518;2023-05-27T05:33:57;16.60;97.40
48860;DHT22;34679;51.436;-2.518;2023-05-27T05:36:23;16.90;96.80
48860;DHT22;34679;51.436;-2.518;2023-05-27T05:38:49;17.30;96.80
48860;DHT22;34679;51.436;-2.518;2023-05-27T05:41:15;17.50;96.50
48860;DHT22;34679;51.436;-2.518;2023-05-27T05:43:40;17.60;96.40
48860;DHT22;34679;51.436;-2.518;2023-05-27T05:46:06;17.20;96.60
48860;DHT22;34679;51.436;-2.518;2023-05-27T05:48:32;16.90;97.20
48860;DHT22;34679;51.436;-2.518;2023-05-27T05:50:58;17.20;96.90
48860;DHT22;34679;51.436;-2.518;2023-05-27T05:53:26;17.40;96.80
48860;DHT22;34679;51.436;-2.518;2023-05-27T05:55:51;17.60;96.90
48860;DHT22;34679;51.436;-2.518;2023-05-27T05:58:17;17.50;96.70
48860;DHT22;34679;51.436;-2.518;2023-05-27T06:00:43;17.60;96.90
48860;DHT22;34679;51.436;-2.518;2023-05-27T06:03:09;17.80;96.60
48860;DHT22;34679;51.436;-2.518;2023-05-27T06:05:34;18.30;96.10
48860;DHT22;34679;51.436;-2.518;2023-05-27T06:08:00;18.10;96.00
48860;DHT22;34679;51.436;-2.518;2023-05-27T06:10:26;17.20;96.90
48860;DHT22;34679;51.436;-2.518;2023-05-27T06:12:51;17.40;97.10
48860;DHT22;34679;51.436;-2.518;2023-05-27T06:15:17;17.10;97.10
48860;DHT22;34679;51.436;-2.518;2023-05-27T06:17:44;17.70;97.00
48860;DHT22;34679;51.436;-2.518;2023-05-27T06:20:10;18.10;96.60
48860;DHT22;34679;51.436;-2.518;2023-05-27T06:22:35;18.70;96.10
48860;DHT22;34679;51.436;-2.518;2023-05-27T06:25:01;18.60;96.20
48860;DHT22;34679;51.436;-2.518;2023-05-27T06:27:27;17.70;97.20
48860;DHT22;34679;51.436;-2.518;2023-05-27T06:29:53;18.40;96.70
48860;DHT22;34679;51.436;-2.518;2023-05-27T06:32:18;19.10;96.10
48860;DHT22;34679;51.436;-2.518;2023-05-27T06:34:44;19.80;95.40
48860;DHT22;34679;51.436;-2.518;2023-05-27T06:37:10;19.40;95.40
48860;DHT22;34679;51.436;-2.518;2023-05-27T06:39:35;18.80;96.30
48860;DHT22;34679;51.436;-2.518;2023-05-27T06:42:01;19.60;95.30
48860;DHT22;34679;51.436;-2.518;2023-05-27T06:44:27;19.90;95.00
48860;DHT22;34679;51.436;-2.518;2023-05-27T06:46:52;18.80;96.00
48860;DHT22;34679;51.436;-2.518;2023-05-27T06:49:18;18.40;96.30
48860;DHT22;34679;51.436;-2.518;2023-05-27T06:51:43;18.00;97.00
48860;DHT22;34679;51.436;-2.518;2023-05-27T06:54:09;17.70;97.40
48860;DHT22;34679;51.436;-2.518;2023-05-27T06:56:35;17.60;97.50
48860;DHT22;34679;51.436;-2.518;2023-05-27T06:59:01;16.90;98.40
48860;DHT22;34679;51.436;-2.518;2023-05-27T07:01:26;17.10;98.30
48860;DHT22;34679;51.436;-2.518;2023-05-27T07:03:52;17.60;98.30
48860;DHT22;34679;51.436;-2.518;2023-05-27T07:06:18;19.00;96.60
48860;DHT22;34679;51.436;-2.518;2023-05-27T07:08:43;19.50;96.00
48860;DHT22;34679;51.436;-2.518;2023-05-27T07:11:09;19.70;95.50
48860;DHT22;34679;51.436;-2.518;2023-05-27T07:13:35;19.40;95.90
48860;DHT22;34679;51.436;-2.518;2023-05-27T07:16:00;18.10;97.10
48860;DHT22;34679;51.436;-2.518;2023-05-27T07:18:26;17.00;98.00
48860;DHT22;34679;51.436;-2.518;2023-05-27T07:20:52;16.60;99.00
48860;DHT22;34679;51.436;-2.518;2023-05-27T07:23:18;16.60;99.00
48860;DHT22;34679;51.436;-2.518;2023-05-27T07:25:43;16.40;99.20
48860;DHT22;34679;51.436;-2.518;2023-05-27T07:28:09;17.20;98.80
48860;DHT22;34679;51.436;-2.518;2023-05-27T07:30:35;18.70;97.20
48860;DHT22;34679;51.436;-2.518;2023-05-27T07:33:00;19.60;96.10
48860;DHT22;34679;51.436;-2.518;2023-05-27T07:35:26;20.40;95.20
48860;DHT22;34679;51.436;-2.518;2023-05-27T07:37:53;21.20;94.80
48860;DHT22;34679;51.436;-2.518;2023-05-27T07:40:19;20.90;94.80
48860;DHT22;34679;51.436;-2.518;2023-05-27T07:42:45;20.50;95.30
48860;DHT22;34679;51.436;-2.518;2023-05-27T07:45:10;21.10;95.20
48860;DHT22;34679;51.436;-2.518;2023-05-27T07:47:36;20.70;95.30
48860;DHT22;34679;51.436;-2.518;2023-05-27T07:50:02;21.70;94.10
48860;DHT22;34679;51.436;-2.518;2023-05-27T07:52:28;22.00;94.20
48860;DHT22;34679;51.436;-2.518;2023-05-27T07:54:54;21.30;94.30
48860;DHT22;34679;51.436;-2.518;2023-05-27T07:57:20;21.00;94.30
48860;DHT22;34679;51.436;-2.518;2023-05-27T07:59:45;20.30;95.20
48860;DHT22;34679;51.436;-2.518;2023-05-27T08:02:11;21.00;94.60
48860;DHT22;34679;51.436;-2.518;2023-05-27T08:04:37;21.10;94.40
48860;DHT22;34679;51.436;-2.518;2023-05-27T08:07:02;21.30;94.40
48860;DHT22;34679;51.436;-2.518;2023-05-27T08:09:28;22.30;93.80
48860;DHT22;34679;51.436;-2.518;2023-05-27T08:11:54;22.50;93.00
48860;DHT22;34679;51.436;-2.518;2023-05-27T08:14:20;22.40;93.50
48860;DHT22;34679;51.436;-2.518;2023-05-27T08:16:46;23.30;92.80
48860;DHT22;34679;51.436;-2.518;2023-05-27T08:19:12;24.00;92.00
48860;DHT22;34679;51.436;-2.518;2023-05-27T08:21:37;24.40;92.10
48860;DHT22;34679;51.436;-2.518;2023-05-27T08:24:03;24.40;92.00
48860;DHT22;34679;51.436;-2.518;2023-05-27T08:26:30;24.80;91.20
48860;DHT22;34679;51.436;-2.518;2023-05-27T08:28:56;24.50;91.50
48860;DHT22;34679;51.436;-2.518;2023-05-27T08:31:22;23.80;92.30
48860;DHT22;34679;51.436;-2.518;2023-05-27T08:33:48;24.30;91.80
48860;DHT22;34679;51.436;-2.518;2023-05-27T08:36:13;24.60;91.70
48860;DHT22;34679;51.436;-2.518;2023-05-27T08:38:40;23.90;91.30
48860;DHT22;34679;51.436;-2.518;2023-05-27T08:41:06;23.80;91.70
48860;DHT22;34679;51.436;-2.518;2023-05-27T08:43:32;25.10;91.10
48860;DHT22;34679;51.436;-2.518;2023-05-27T08:46:01;25.70;90.30
48860;DHT22;34679;51.436;-2.518;2023-05-27T08:48:26;25.50;90.40
48860;DHT22;34679;51.436;-2.518;2023-05-27T08:50:52;24.70;90.70
48860;DHT22;34679;51.436;-2.518;2023-05-27T08:53:19;24.50;91.20
48860;DHT22;34679;51.436;-2.518;2023-05-27T08:55:46;23.30;91.80
48860;DHT22;34679;51.436;-2.518;2023-05-27T08:58:12;23.70;91.90
48860;DHT22;34679;51.436;-2.518;2023-05-27T09:00:38;24.00;91.20
48860;DHT22;34679;51.436;-2.518;2023-05-27T09:03:04;24.10;91.00
48860;DHT22;34679;51.436;-2.518;2023-05-27T09:05:30;24.30;90.80
48860;DHT22;34679;51.436;-2.518;2023-05-27T09:07:55;24.80;90.90
48860;DHT22;34679;51.436;-2.518;2023-05-27T09:10:21;24.50;90.70
48860;DHT22;34679;51.436;-2.518;2023-05-27T09:12:47;24.60;91.20
48860;DHT22;34679;51.436;-2.518;2023-05-27T09:15:13;24.10;91.10
48860;DHT22;34679;51.436;-2.518;2023-05-27T09:17:42;24.80;91.10
48860;DHT22;34679;51.436;-2.518;2023-05-27T09:20:09;23.80;92.00
48860;DHT22;34679;51.436;-2.518;2023-05-27T09:22:36;23.30;91.50
48860;DHT22;34679;51.436;-2.518;2023-05-27T09:25:02;24.50;90.70
48860;DHT22;34679;51.436;-2.518;2023-05-27T09:27:29;24.80;90.30
48860;DHT22;34679;51.436;-2.518;2023-05-27T09:29:57;24.50;90.10
48860;DHT22;34679;51.436;-2.518;2023-05-27T09:32:26;25.00;90.20
48860;DHT22;34679;51.436;-2.518;2023-05-27T09:35:02;23.40;91.30
48860;DHT22;34679;51.436;-2.518;2023-05-27T09:37:29;23.70;90.60
48860;DHT22;34679;51.436;-2.518;2023-05-27T09:39:58;23.60;90.80
48860;DHT22;34679;51.436;-2.518;2023-05-27T09:42:24;23.80;90.30
48860;DHT22;34679;51.436;-2.518;2023-05-27T09:44:50;24.30;90.20
48860;DHT22;34679;51.436;-2.518;2023-05-27T09:47:20;24.00;90.10
48860;DHT22;34679;51.436;-2.518;2023-05-27T09:49:49;23.80;90.10
48860;DHT22;34679;51.436;-2.518;2023-05-27T09:52:18;24.10;90.00
48860;DHT22;34679;51.436;-2.518;2023-05-27T09:54:47;24.20;89.60
48860;DHT22;34679;51.436;-2.518;2023-05-27T09:57:14;24.30;90.40
48860;DHT22;34679;51.436;-2.518;2023-05-27T09:59:40;24.20;90.60
48860;DHT22;34679;51.436;-2.518;2023-05-27T10:02:06;23.70;90.30
48860;DHT22;34679;51.436;-2.518;2023-05-27T10:04:33;23.70;90.00
48860;DHT22;34679;51.436;-2.518;2023-05-27T10:06:59;23.40;89.70
48860;DHT22;34679;51.436;-2.518;2023-05-27T10:09:27;23.60;89.50
48860;DHT22;34679;51.436;-2.518;2023-05-27T10:11:53;22.80;90.70
48860;DHT22;34679;51.436;-2.518;2023-05-27T10:14:20;22.50;91.40
48860;DHT22;34679;51.436;-2.518;2023-05-27T10:16:53;23.50;90.90
48860;DHT22;34679;51.436;-2.518;2023-05-27T10:19:21;23.10;90.60
48860;DHT22;34679;51.436;-2.518;2023-05-27T10:21:47;24.10;88.20
48860;DHT22;34679;51.436;-2.518;2023-05-27T10:24:12;23.20;90.20
48860;DHT22;34679;51.436;-2.518;2023-05-27T10:26:43;22.40;91.00
48860;DHT22;34679;51.436;-2.518;2023-05-27T10:29:16;23.10;90.00
48860;DHT22;34679;51.436;-2.518;2023-05-27T10:31:52;22.40;91.10
48860;DHT22;34679;51.436;-2.518;2023-05-27T10:34:17;22.40;90.80
48860;DHT22;34679;51.436;-2.518;2023-05-27T10:36:45;21.30;90.80
48860;DHT22;34679;51.436;-2.518;2023-05-27T10:39:15;21.10;91.40
48860;DHT22;34679;51.436;-2.518;2023-05-27T10:41:49;21.00;91.80
48860;DHT22;34679;51.436;-2.518;2023-05-27T10:44:32;20.80;93.00
48860;DHT22;34679;51.436;-2.518;2023-05-27T10:47:13;21.10;92.20
48860;DHT22;34679;51.436;-2.518;2023-05-27T10:49:40;21.30;92.30
48860;DHT22;34679;51.436;-2.518;2023-05-27T10:52:10;21.10;92.70
48860;DHT22;34679;51.436;-2.518;2023-05-27T10:54:47;21.10;93.00
48860;DHT22;34679;51.436;-2.518;2023-05-27T10:57:17;21.20;92.20
48860;DHT22;34679;51.436;-2.518;2023-05-27T10:59:54;20.80;93.00
48860;DHT22;34679;51.436;-2.518;2023-05-27T11:02:21;21.10;92.00
48860;DHT22;34679;51.436;-2.518;2023-05-27T11:04:50;21.00;92.50
48860;DHT22;34679;51.436;-2.518;2023-05-27T11:07:20;21.10;91.40
48860;DHT22;34679;51.436;-2.518;2023-05-27T11:09:48;20.90;91.80
48860;DHT22;34679;51.436;-2.518;2023-05-27T11:12:15;20.80;91.90
48860;DHT22;34679;51.436;-2.518;2023-05-27T11:14:44;20.70;91.80
48860;DHT22;34679;51.436;-2.518;2023-05-27T11:17:11;20.90;90.70
48860;DHT22;34679;51.436;-2.518;2023-05-27T11:19:41;21.10;91.00
48860;DHT22;34679;51.436;-2.518;2023-05-27T11:22:08;20.70;90.60
48860;DHT22;34679;51.436;-2.518;2023-05-27T11:24:38;21.10;90.90
48860;DHT22;34679;51.436;-2.518;2023-05-27T11:27:12;21.10;90.80
48860;DHT22;34679;51.436;-2.518;2023-05-27T11:29:38;21.10;90.00
48860;DHT22;34679;51.436;-2.518;2023-05-27T11:32:08;21.10;90.50
48860;DHT22;34679;51.436;-2.518;2023-05-27T11:34:35;21.30;91.30
48860;DHT22;34679;51.436;-2.518;2023-05-27T11:37:04;21.30;90.80
48860;DHT22;34679;51.436;-2.518;2023-05-27T11:39:31;21.60;91.60
48860;DHT22;34679;51.436;-2.518;2023-05-27T11:41:57;21.50;91.00
48860;DHT22;34679;51.436;-2.518;2023-05-27T11:44:24;21.40;91.70
48860;DHT22;34679;51.436;-2.518;2023-05-27T11:46:52;21.10;91.30
48860;DHT22;34679;51.436;-2.518;2023-05-27T11:49:19;21.00;91.80
48860;DHT22;34679;51.436;-2.518;2023-05-27T11:51:49;20.80;91.40
48860;DHT22;34679;51.436;-2.518;2023-05-27T11:54:29;20.80;91.50
48860;DHT22;34679;51.436;-2.518;2023-05-27T11:56:56;20.60;91.10
48860;DHT22;34679;51.436;-2.518;2023-05-27T11:59:24;20.40;90.60
48860;DHT22;34679;51.436;-2.518;2023-05-27T12:01:51;20.50;90.50
48860;DHT22;34679;51.436;-2.518;2023-05-27T12:04:19;20.80;91.70
48860;DHT22;34679;51.436;-2.518;2023-05-27T12:06:45;21.00;90.20
48860;DHT22;34679;51.436;-2.518;2023-05-27T12:09:11;20.90;90.30
48860;DHT22;34679;51.436;-2.518;2023-05-27T12:11:38;20.70;90.10
48860;DHT22;34679;51.436;-2.518;2023-05-27T12:14:04;20.90;88.50
48860;DHT22;34679;51.436;-2.518;2023-05-27T12:16:30;20.80;86.30
48860;DHT22;34679;51.436;-2.518;2023-05-27T12:18:57;20.80;83.70
48860;DHT22;34679;51.436;-2.518;2023-05-27T12:21:22;20.80;90.00
48860;DHT22;34679;51.436;-2.518;2023-05-27T12:23:48;20.90;89.80
48860;DHT22;34679;51.436;-2.518;2023-05-27T12:26:15;21.20;89.60
48860;DHT22;34679;51.436;-2.518;2023-05-27T12:28:42;21.30;88.50
48860;DHT22;34679;51.436;-2.518;2023-05-27T12:31:08;21.00;87.60
48860;DHT22;34679;51.436;-2.518;2023-05-27T12:33:33;21.00;86.20
48860;DHT22;34679;51.436;-2.518;2023-05-27T12:36:00;20.90;85.10
48860;DHT22;34679;51.436;-2.518;2023-05-27T12:38:26;21.00;84.30
48860;DHT22;34679;51.436;-2.518;2023-05-27T12:40:53;21.30;86.00
48860;DHT22;34679;51.436;-2.518;2023-05-27T12:43:20;21.30;85.80
48860;DHT22;34679;51.436;-2.518;2023-05-27T12:45:46;21.30;86.30
48860;DHT22;34679;51.436;-2.518;2023-05-27T12:48:12;21.20;85.40
48860;DHT22;34679;51.436;-2.518;2023-05-27T12:50:38;21.20;84.80
48860;DHT22;34679;51.436;-2.518;2023-05-27T12:53:04;21.30;83.50
48860;DHT22;34679;51.436;-2.518;2023-05-27T12:55:30;21.20;81.00
48860;DHT22;34679;51.436;-2.518;2023-05-27T12:57:56;21.20;81.90
48860;DHT22;34679;51.436;-2.518;2023-05-27T13:00:22;21.20;84.60
48860;DHT22;34679;51.436;-2.518;2023-05-27T13:02:48;21.30;85.40
48860;DHT22;34679;51.436;-2.518;2023-05-27T13:05:14;21.30;85.00
48860;DHT22;34679;51.436;-2.518;2023-05-27T13:07:40;21.00;82.20
48860;DHT22;34679;51.436;-2.518;2023-05-27T13:10:07;21.20;81.80
48860;DHT22;34679;51.436;-2.518;2023-05-27T13:12:36;21.30;80.20
48860;DHT22;34679;51.436;-2.518;2023-05-27T13:15:02;21.40;79.30
48860;DHT22;34679;51.436;-2.518;2023-05-27T13:17:32;21.50;79.90
48860;DHT22;34679;51.436;-2.518;2023-05-27T13:19:57;21.40;82.70
48860;DHT22;34679;51.436;-2.518;2023-05-27T13:22:23;21.40;84.00
48860;DHT22;34679;51.436;-2.518;2023-05-27T13:24:49;21.30;84.30
48860;DHT22;34679;51.436;-2.518;2023-05-27T13:27:15;21.50;84.30
48860;DHT22;34679;51.436;-2.518;2023-05-27T13:29:41;21.30;86.50
48860;DHT22;34679;51.436;-2.518;2023-05-27T13:32:07;21.20;86.40
48860;DHT22;34679;51.436;-2.518;2023-05-27T13:34:34;21.50;90.00
48860;DHT22;34679;51.436;-2.518;2023-05-27T13:37:02;21.60;90.10
48860;DHT22;34679;51.436;-2.518;2023-05-27T13:39:28;21.60;90.10
48860;DHT22;34679;51.436;-2.518;2023-05-27T13:41:54;21.60;90.40
48860;DHT22;34679;51.436;-2.518;2023-05-27T13:44:19;21.50;84.40
48860;DHT22;34679;51.436;-2.518;2023-05-27T13:46:45;21.70;84.00
48860;DHT22;34679;51.436;-2.518;2023-05-27T13:49:10;21.90;82.90
48860;DHT22;34679;51.436;-2.518;2023-05-27T13:51:43;21.90;85.90
48860;DHT22;34679;51.436;-2.518;2023-05-27T13:54:10;21.80;86.80
48860;DHT22;34679;51.436;-2.518;2023-05-27T13:56:36;22.00;88.20
48860;DHT22;34679;51.436;-2.518;2023-05-27T13:59:01;22.00;87.80
48860;DHT22;34679;51.436;-2.518;2023-05-27T14:01:29;21.90;89.80
48860;DHT22;34679;51.436;-2.518;2023-05-27T14:03:55;21.80;90.00
48860;DHT22;34679;51.436;-2.518;2023-05-27T14:06:20;21.70;90.00
48860;DHT22;34679;51.436;-2.518;2023-05-27T14:08:46;21.90;90.50
48860;DHT22;34679;51.436;-2.518;2023-05-27T14:11:12;22.10;87.70
48860;DHT22;34679;51.436;-2.518;2023-05-27T14:13:38;22.10;85.60
48860;DHT22;34679;51.436;-2.518;2023-05-27T14:16:04;22.10;87.20
48860;DHT22;34679;51.436;-2.518;2023-05-27T14:18:30;22.10;85.70
48860;DHT22;34679;51.436;-2.518;2023-05-27T14:20:56;22.20;87.00
48860;DHT22;34679;51.436;-2.518;2023-05-27T14:23:21;22.00;86.10
48860;DHT22;34679;51.436;-2.518;2023-05-27T14:25:47;21.70;85.90
48860;DHT22;34679;51.436;-2.518;2023-05-27T14:28:13;21.80;89.00
48860;DHT22;34679;51.436;-2.518;2023-05-27T14:30:38;21.80;90.10
48860;DHT22;34679;51.436;-2.518;2023-05-27T14:33:08;21.80;90.40
48860;DHT22;34679;51.436;-2.518;2023-05-27T14:35:35;21.70;91.00
48860;DHT22;34679;51.436;-2.518;2023-05-27T14:38:02;21.90;90.30
48860;DHT22;34679;51.436;-2.518;2023-05-27T14:40:27;22.00;85.70
48860;DHT22;34679;51.436;-2.518;2023-05-27T14:42:53;22.00;84.40
48860;DHT22;34679;51.436;-2.518;2023-05-27T14:45:20;21.90;84.60
48860;DHT22;34679;51.436;-2.518;2023-05-27T14:47:50;21.90;87.20
48860;DHT22;34679;51.436;-2.518;2023-05-27T14:50:17;22.00;87.60
48860;DHT22;34679;51.436;-2.518;2023-05-27T14:52:43;22.00;88.40
48860;DHT22;34679;51.436;-2.518;2023-05-27T14:55:09;22.10;86.40
48860;DHT22;34679;51.436;-2.518;2023-05-27T14:57:35;22.00;87.50
48860;DHT22;34679;51.436;-2.518;2023-05-27T15:00:01;22.10;85.50
48860;DHT22;34679;51.436;-2.518;2023-05-27T15:02:27;22.10;86.30
48860;DHT22;34679;51.436;-2.518;2023-05-27T15:04:53;22.00;82.80
48860;DHT22;34679;51.436;-2.518;2023-05-27T15:07:18;22.10;83.30
48860;DHT22;34679;51.436;-2.518;2023-05-27T15:09:47;22.00;82.80
48860;DHT22;34679;51.436;-2.518;2023-05-27T15:12:14;22.10;84.90
48860;DHT22;34679;51.436;-2.518;2023-05-27T15:14:40;22.20;84.20
48860;DHT22;34679;51.436;-2.518;2023-05-27T15:17:05;21.80;83.80
48860;DHT22;34679;51.436;-2.518;2023-05-27T15:19:31;22.00;84.80
48860;DHT22;34679;51.436;-2.518;2023-05-27T15:21:57;22.20;84.10
48860;DHT22;34679;51.436;-2.518;2023-05-27T15:24:22;22.20;85.50
48860;DHT22;34679;51.436;-2.518;2023-05-27T15:26:48;22.20;83.40